Time;durP1;ratioP1;P1;durP2;ratioP2;P2;SDS_P1;SDS_P2;PMS_P1;PMS_P2;Temp;Humidity;BMP_temperature;BMP_pressure;BME280_temperature;BME280_humidity;BME280_pressure;Samples;Min_cycle;Max_cycle;Signal;HPM_P1;HPM_P2
2021/01/04 00:01:04;;;;;;;16.27;10.65;;;;;;;2.79;91.42;101791.66;4949722;28;20042;-83
2021/01/04 00:03:56;;;;;;;16.60;10.40;;;;;;;2.65;91.32;101762.53;4954436;28;20030;-83
2021/01/04 00:06:47;;;;;;;15.40;10.30;;;;;;;2.81;91.59;101795.06;4939949;28;20061;-83
2021/01/04 00:09:44;;;;;;;19.00;11.35;;;;;;;2.79;91.53;101799.56;4955616;28;20477;-83
2021/01/04 00:12:14;;;;;;;18.00;9.52;;;;;;;2.78;91.74;101792.59;4969337;28;20030;-83
2021/01/04 00:14:42;;;;;;;18.48;10.95;;;;;;;2.77;92.23;101795.31;4977012;28;20066;-85
2021/01/04 00:17:32;;;;;;;15.93;10.10;;;;;;;2.78;91.59;101789.13;4958510;28;20445;-84
2021/01/04 00:20:06;;;;;;;16.33;10.48;;;;;;;2.75;91.93;101790.97;4969083;28;20141;-85
2021/01/04 00:23:09;;;;;;;15.95;9.68;;;;;;;2.81;91.46;101792.44;4970057;28;20174;-83
2021/01/04 00:25:34;;;;;;;12.98;9.55;;;;;;;2.85;91.64;101790.50;4970136;28;20045;-85
2021/01/04 00:28:07;;;;;;;15.40;9.43;;;;;;;2.57;91.51;101747.97;4963845;28;20019;-85
2021/01/04 00:30:50;;;;;;;14.02;9.40;;;;;;;2.81;91.37;101773.97;4938342;28;20031;-83
2021/01/04 00:33:29;;;;;;;15.75;9.63;;;;;;;2.89;91.10;101789.41;4969964;28;20034;-83
2021/01/04 00:36:04;;;;;;;13.13;9.02;;;;;;;2.86;91.36;101794.84;4970781;28;20041;-83
2021/01/04 00:39:03;;;;;;;12.80;9.25;;;;;;;2.87;91.10;101792.09;4953392;28;20043;-83
2021/01/04 00:42:08;;;;;;;14.35;9.88;;;;;;;2.91;91.46;101784.91;4970882;28;20069;-85
2021/01/04 00:44:39;;;;;;;12.73;9.35;;;;;;;2.76;91.49;101773.34;4967334;28;20106;-84
2021/01/04 00:47:21;;;;;;;14.05;9.05;;;;;;;2.80;91.37;101769.63;4965670;28;20038;-83
2021/01/04 00:49:47;;;;;;;13.10;9.48;;;;;;;2.79;91.77;101764.44;4952049;28;20023;-86
2021/01/04 00:52:21;;;;;;;12.75;8.93;;;;;;;2.90;91.23;101784.03;4969539;28;20018;-82
2021/01/04 00:55:05;;;;;;;13.55;9.20;;;;;;;2.88;91.37;101777.16;4966974;28;20047;-85
2021/01/04 00:57:43;;;;;;;16.35;9.93;;;;;;;2.81;92.04;101773.13;4966659;28;20027;-82
2021/01/04 01:00:22;;;;;;;13.93;8.65;;;;;;;2.81;92.35;101771.34;4974870;28;20034;-83
2021/01/04 01:02:58;;;;;;;15.15;10.18;;;;;;;2.82;91.75;101772.19;4971642;28;20030;-85
2021/01/04 01:05:37;;;;;;;13.40;9.27;;;;;;;2.78;92.54;101770.66;4954654;28;20030;-82
2021/01/04 01:08:15;;;;;;;16.50;10.20;;;;;;;2.55;93.18;101748.97;4929063;29;20019;-83
2021/01/04 01:10:47;;;;;;;14.05;9.63;;;;;;;2.53;93.04;101745.53;4984684;28;20031;-84
2021/01/04 01:13:15;;;;;;;13.60;10.02;;;;;;;2.70;93.44;101776.31;4957709;28;20046;-82
2021/01/04 01:15:59;;;;;;;12.52;8.25;;;;;;;2.72;93.00;101774.44;4966470;28;20034;-81
2021/01/04 01:18:29;;;;;;;14.98;9.13;;;;;;;2.66;93.92;101772.97;4968026;28;20034;-81
2021/01/04 01:20:55;;;;;;;13.05;9.15;;;;;;;2.64;94.01;101774.00;4956875;28;20052;-81
2021/01/04 01:23:23;;;;;;;15.15;10.02;;;;;;;2.43;94.75;101753.94;4956691;28;20195;-81
2021/01/04 01:26:11;;;;;;;15.55;9.63;;;;;;;2.26;94.23;101727.56;4969152;28;20163;-86
2021/01/04 01:28:58;;;;;;;11.20;8.85;;;;;;;2.38;94.30;101742.75;4953112;28;20058;-81
2021/01/04 01:31:42;;;;;;;13.05;9.88;;;;;;;2.55;95.09;101785.84;4960502;28;20089;-85
2021/01/04 01:34:18;;;;;;;15.75;9.82;;;;;;;2.49;95.14;101773.00;4972643;28;20034;-80
2021/01/04 01:36:58;;;;;;;11.68;8.88;;;;;;;2.52;94.89;101781.59;4987955;28;20370;-80
2021/01/04 01:39:31;;;;;;;12.35;9.90;;;;;;;2.53;95.10;101785.94;4969526;28;20027;-84
2021/01/04 01:42:26;;;;;;;13.05;10.15;;;;;;;2.40;95.25;101755.88;4971458;28;20034;-79
2021/01/04 01:44:59;;;;;;;15.32;10.18;;;;;;;2.57;95.24;101784.00;4975534;28;20150;-80
2021/01/04 01:48:02;;;;;;;14.98;10.32;;;;;;;2.54;95.01;101781.50;4970249;28;20030;-79
2021/01/04 01:50:38;;;;;;;14.95;10.77;;;;;;;2.51;95.17;101784.31;4950784;28;20043;-84
2021/01/04 01:53:28;;;;;;;15.55;10.43;;;;;;;2.46;95.54;101795.06;4969811;28;20120;-79
2021/01/04 01:56:21;;;;;;;16.38;10.25;;;;;;;2.46;95.58;101792.44;4957397;28;20030;-80
2021/01/04 01:58:55;;;;;;;13.63;9.68;;;;;;;2.47;95.59;101783.59;4967132;28;20070;-80
2021/01/04 02:01:26;;;;;;;15.13;9.60;;;;;;;2.47;95.47;101791.50;4988681;28;20611;-80
2021/01/04 02:04:35;;;;;;;15.45;10.82;;;;;;;2.42;95.83;101793.53;4973096;28;20676;-80
2021/01/04 02:07:18;;;;;;;14.70;9.57;;;;;;;2.40;96.11;101788.31;4967642;28;20042;-79
2021/01/04 02:09:46;;;;;;;14.52;10.18;;;;;;;2.40;96.47;101790.97;4955133;28;20027;-79
2021/01/04 02:12:24;;;;;;;14.52;10.45;;;;;;;2.39;96.38;101781.34;4956446;28;20352;-79
2021/01/04 02:15:07;;;;;;;15.35;10.23;;;;;;;2.35;96.35;101782.44;4956181;28;20114;-80
2021/01/04 02:17:56;;;;;;;12.40;9.30;;;;;;;2.38;96.39;101781.44;4954079;28;20029;-83
2021/01/04 02:20:37;;;;;;;14.63;10.25;;;;;;;2.35;96.56;101779.81;4969323;28;20043;-80
2021/01/04 02:23:41;;;;;;;14.50;10.07;;;;;;;2.35;96.87;101790.34;4940692;28;20049;-84
2021/01/04 02:26:16;;;;;;;13.48;9.80;;;;;;;2.34;96.73;101785.16;4963306;28;20030;-84
2021/01/04 02:29:08;;;;;;;17.10;11.05;;;;;;;2.36;96.73;101783.28;4956923;28;20019;-84
2021/01/04 02:31:36;;;;;;;15.10;10.68;;;;;;;2.32;96.91;101787.88;4973281;28;20058;-80
2021/01/04 02:34:02;;;;;;;14.73;10.40;;;;;;;2.32;97.67;101779.97;4946518;28;20065;-84
2021/01/04 02:36:29;;;;;;;17.23;12.10;;;;;;;2.30;97.59;101781.81;4955652;28;20027;-81
2021/01/04 02:39:13;;;;;;;15.18;10.82;;;;;;;2.34;97.38;101774.59;4955808;28;20516;-81
2021/01/04 02:41:55;;;;;;;15.98;10.43;;;;;;;2.39;97.49;101783.16;4953448;28;20545;-80
2021/01/04 02:44:21;;;;;;;14.57;10.70;;;;;;;2.18;97.25;101745.56;4979921;28;20066;-80
2021/01/04 02:46:56;;;;;;;16.08;11.38;;;;;;;2.37;97.42;101785.88;4939067;28;20118;-86
2021/01/04 02:49:31;;;;;;;17.42;11.10;;;;;;;2.27;97.76;101764.41;4939494;28;20081;-82
2021/01/04 02:52:02;;;;;;;13.32;10.20;;;;;;;2.37;97.49;101779.72;4967181;28;20011;-82
2021/01/04 02:54:30;;;;;;;15.80;10.52;;;;;;;2.29;96.83;101770.44;4956471;28;20406;-83
2021/01/04 02:57:17;;;;;;;16.92;10.98;;;;;;;2.39;97.13;101778.72;4971243;28;20446;-82
2021/01/04 02:59:53;;;;;;;15.98;10.95;;;;;;;2.22;97.11;101755.03;4964487;28;20047;-82
2021/01/04 03:02:38;;;;;;;15.23;11.40;;;;;;;2.34;97.03;101767.56;4936900;28;20023;-82
2021/01/04 03:05:05;;;;;;;15.10;11.07;;;;;;;2.35;96.98;101774.56;4980435;28;20019;-81
2021/01/04 03:07:32;;;;;;;14.35;10.30;;;;;;;2.41;97.11;101774.22;4952343;28;20098;-82
2021/01/04 03:09:58;;;;;;;14.52;10.45;;;;;;;2.39;97.40;101770.81;4970248;28;20110;-82
2021/01/04 03:12:30;;;;;;;17.83;11.40;;;;;;;2.22;97.01;101742.69;4955157;28;20018;-84
2021/01/04 03:14:56;;;;;;;17.42;11.43;;;;;;;2.36;97.45;101773.63;4955863;28;20086;-84
2021/01/04 03:17:38;;;;;;;14.98;11.02;;;;;;;1.99;97.57;101710.47;4969975;28;20034;-83
2021/01/04 03:20:12;;;;;;;14.45;11.00;;;;;;;2.14;97.45;101734.31;4957090;28;20041;-82
2021/01/04 03:22:38;;;;;;;16.30;11.68;;;;;;;2.31;97.84;101757.19;4950883;28;20035;-83
2021/01/04 03:25:12;;;;;;;17.75;11.80;;;;;;;2.19;97.71;101747.25;4953016;28;20572;-82
2021/01/04 03:27:39;;;;;;;18.20;12.43;;;;;;;2.38;97.77;101760.34;4952346;28;20057;-83
2021/01/04 03:30:05;;;;;;;18.02;12.55;;;;;;;2.13;97.57;101725.56;4970391;28;20096;-82
2021/01/04 03:32:31;;;;;;;16.10;11.35;;;;;;;2.37;97.81;101770.06;4955747;28;20456;-82
2021/01/04 03:34:56;;;;;;;14.88;12.05;;;;;;;2.37;97.80;101766.56;4972749;28;20031;-83
2021/01/04 03:37:22;;;;;;;17.73;12.43;;;;;;;2.36;97.83;101768.34;4971978;28;20052;-86
2021/01/04 03:39:47;;;;;;;15.98;11.73;;;;;;;2.23;97.77;101740.94;4952586;28;20042;-83
2021/01/04 03:42:13;;;;;;;16.52;12.50;;;;;;;2.36;98.02;101760.44;4955210;28;20035;-82
2021/01/04 03:44:40;;;;;;;16.13;12.52;;;;;;;2.32;97.54;101753.63;4954165;28;20047;-82
2021/01/04 03:47:05;;;;;;;15.05;11.75;;;;;;;2.28;97.21;101736.25;4945743;28;20062;-82
2021/01/04 03:49:31;;;;;;;16.25;12.60;;;;;;;2.37;97.29;101763.94;4954736;28;20042;-82
2021/01/04 03:51:57;;;;;;;15.82;12.57;;;;;;;2.24;97.38;101742.63;4968835;28;20405;-82
2021/01/04 03:54:23;;;;;;;18.58;12.48;;;;;;;2.41;97.12;101761.06;4971432;28;20034;-82
2021/01/04 03:56:48;;;;;;;16.65;12.50;;;;;;;2.09;96.78;101700.34;4938249;28;20038;-82
2021/01/04 03:59:14;;;;;;;17.08;12.60;;;;;;;2.44;97.09;101766.19;4969167;28;20047;-81
2021/01/04 04:01:45;;;;;;;16.05;12.32;;;;;;;2.45;96.60;101761.75;4955351;28;20117;-82
2021/01/04 04:04:11;;;;;;;15.90;12.05;;;;;;;2.46;96.80;101750.28;4939783;28;20045;-81
2021/01/04 04:06:37;;;;;;;16.23;11.88;;;;;;;2.50;96.43;101761.53;4953713;28;20035;-82
2021/01/04 04:09:02;;;;;;;18.00;12.18;;;;;;;2.49;96.60;101757.19;4968614;28;20034;-82
2021/01/04 04:11:27;;;;;;;17.90;11.48;;;;;;;2.48;96.80;101763.38;4970820;28;20054;-84
2021/01/04 04:13:53;;;;;;;16.80;12.60;;;;;;;2.43;97.07;101761.00;4972615;28;20023;-84
2021/01/04 04:16:18;;;;;;;15.38;11.95;;;;;;;2.48;97.25;101766.03;4950696;28;20303;-84
2021/01/04 04:18:44;;;;;;;15.80;11.20;;;;;;;2.29;97.15;101738.84;4966884;28;20043;-85
2021/01/04 04:21:12;;;;;;;16.00;11.65;;;;;;;2.46;96.81;101760.81;4938688;28;20034;-84
2021/01/04 04:23:38;;;;;;;;;;;;;;;2.45;96.01;101759.09;4972971;28;20086;-83
2021/01/04 04:26:03;;;;;;;16.38;10.00;;;;;;;2.28;96.00;101742.41;4971630;28;19949;-84
2021/01/04 04:28:29;;;;;;;12.63;10.32;;;;;;;2.37;96.19;101777.09;4953902;28;20031;-83
2021/01/04 04:30:54;;;;;;;21.02;12.02;;;;;;;2.37;96.49;101762.16;4971320;28;20485;-84
2021/01/04 04:33:20;;;;;;;13.95;10.57;;;;;;;2.38;96.60;101765.63;4954448;28;20105;-82
2021/01/04 04:35:45;;;;;;;15.98;11.25;;;;;;;2.05;96.42;101718.97;4971037;28;20066;-83
2021/01/04 04:38:11;;;;;;;16.67;11.07;;;;;;;2.42;96.66;101770.66;4969398;28;20053;-83
2021/01/04 04:40:36;;;;;;;15.80;10.65;;;;;;;2.28;96.65;101742.41;4938990;28;20039;-83
2021/01/04 04:43:11;;;;;;;18.55;11.50;;;;;;;2.40;96.45;101772.53;4953072;28;20035;-84
2021/01/04 04:45:37;;;;;;;17.75;11.30;;;;;;;2.37;97.23;101767.44;4954373;28;20027;-83
2021/01/04 04:48:14;;;;;;;17.73;11.82;;;;;;;2.40;97.06;101769.03;4969363;28;20324;-83
2021/01/04 04:50:58;;;;;;;14.13;10.57;;;;;;;2.41;96.66;101768.97;4970469;28;20034;-83
2021/01/04 04:54:02;;;;;;;14.57;10.52;;;;;;;2.45;96.05;101781.06;4971939;28;20137;-83
2021/01/04 04:57:09;;;;;;;15.15;10.10;;;;;;;2.41;96.62;101783.94;4967733;28;20042;-82
2021/01/04 04:59:40;;;;;;;14.93;10.50;;;;;;;2.41;96.29;101776.03;4969773;28;20038;-83
2021/01/04 05:02:25;;;;;;;15.00;10.77;;;;;;;2.43;96.25;101779.44;4970392;28;20031;-85
2021/01/04 05:05:03;;;;;;;15.98;10.32;;;;;;;2.40;96.31;101779.59;4966624;28;20109;-83
2021/01/04 05:07:54;;;;;;;15.68;10.48;;;;;;;2.43;96.11;101782.91;4966281;28;20066;-83
2021/01/04 05:10:25;;;;;;;15.77;10.65;;;;;;;2.43;96.42;101775.00;4981641;28;20035;-82
2021/01/04 05:12:57;;;;;;;17.38;11.07;;;;;;;1.51;96.62;101630.34;4953909;28;20038;-84
2021/01/04 05:15:28;;;;;;;16.42;11.20;;;;;;;2.05;96.63;101716.34;4986738;28;20077;-83
2021/01/04 05:18:18;;;;;;;15.75;10.43;;;;;;;2.47;96.37;101782.75;4971660;28;20026;-84
2021/01/04 05:21:05;;;;;;;13.75;10.52;;;;;;;2.47;96.07;101793.31;4984435;28;20410;-83
2021/01/04 05:23:55;;;;;;;16.73;10.20;;;;;;;2.51;95.55;101794.88;4966457;28;20038;-83
2021/01/04 05:26:23;;;;;;;16.80;10.23;;;;;;;2.39;96.05;101791.03;4969230;28;20042;-85
2021/01/04 05:29:26;;;;;;;15.48;10.13;;;;;;;2.44;95.79;101789.06;4971449;28;20572;-84
2021/01/04 05:32:00;;;;;;;16.33;11.35;;;;;;;2.42;95.74;101788.25;4967120;28;20046;-83
2021/01/04 05:34:36;;;;;;;14.48;10.45;;;;;;;2.42;95.79;101789.09;4953798;28;20556;-83
2021/01/04 05:37:53;;;;;;;15.93;11.07;;;;;;;2.41;96.07;101790.03;4973617;28;20445;-83
2021/01/04 05:40:43;;;;;;;17.48;11.10;;;;;;;2.44;96.04;101791.69;4968470;28;20035;-84
2021/01/04 05:43:13;;;;;;;18.42;10.82;;;;;;;2.45;95.83;101791.59;4967792;28;20027;-84
2021/01/04 05:45:45;;;;;;;16.30;11.27;;;;;;;2.44;96.02;101795.16;4970832;28;20042;-82
2021/01/04 05:48:23;;;;;;;16.73;11.30;;;;;;;2.41;96.40;101799.72;4940684;28;20038;-83
2021/01/04 05:51:04;;;;;;;18.95;10.98;;;;;;;1.81;95.92;101701.69;4966717;28;20034;-84
2021/01/04 05:53:29;;;;;;;15.43;10.20;;;;;;;2.42;96.29;101794.38;4969423;28;20030;-83
2021/01/04 05:55:56;;;;;;;18.10;10.85;;;;;;;2.43;96.13;101806.63;4957200;28;20029;-83
2021/01/04 05:58:25;;;;;;;18.33;11.23;;;;;;;2.43;95.61;101797.88;4973121;28;20107;-83
2021/01/04 06:00:50;;;;;;;20.80;10.48;;;;;;;2.45;95.52;101807.41;4941014;28;20505;-83
2021/01/04 06:03:20;;;;;;;18.00;11.50;;;;;;;2.44;95.07;101796.94;4973168;28;20095;-82
2021/01/04 06:05:50;;;;;;;17.60;11.80;;;;;;;2.34;95.33;101785.16;4956854;28;20035;-86
2021/01/04 06:08:28;;;;;;;17.58;11.30;;;;;;;2.43;95.35;101801.34;4940289;28;20113;-82
2021/01/04 06:11:03;;;;;;;17.67;11.18;;;;;;;2.19;95.57;101760.44;4940251;28;20019;-82
2021/01/04 06:13:37;;;;;;;18.55;11.40;;;;;;;2.48;95.34;101822.19;4957018;28;20033;-82
2021/01/04 06:16:24;;;;;;;18.27;10.80;;;;;;;2.36;95.74;101785.94;4956138;28;20030;-84
2021/01/04 06:18:51;;;;;;;17.93;11.77;;;;;;;2.51;95.71;101815.94;4939478;28;20046;-82
2021/01/04 06:21:40;;;;;;;18.52;11.85;;;;;;;2.50;95.67;101811.59;4956418;28;20820;-82
2021/01/04 06:24:06;;;;;;;18.10;12.32;;;;;;;2.39;96.04;101799.78;4950454;28;20047;-84
2021/01/04 06:26:31;;;;;;;17.98;11.52;;;;;;;2.53;95.71;101821.97;4952853;28;20522;-82
2021/01/04 06:29:00;;;;;;;16.90;12.02;;;;;;;1.80;95.83;101709.66;4971491;28;20701;-83
2021/01/04 06:31:36;;;;;;;16.50;10.85;;;;;;;2.56;95.06;101819.19;4953428;28;20027;-82
2021/01/04 06:34:12;;;;;;;16.23;11.63;;;;;;;2.33;95.70;101791.34;4984961;28;20693;-82
2021/01/04 06:36:38;;;;;;;19.85;11.63;;;;;;;2.47;96.03;101820.50;4920568;28;20023;-85
2021/01/04 06:39:12;;;;;;;17.52;11.05;;;;;;;2.49;95.79;101823.06;4940670;28;20118;-85
2021/01/04 06:41:38;;;;;;;19.73;11.35;;;;;;;2.40;95.94;101805.94;4973103;28;20034;-82
2021/01/04 06:44:15;;;;;;;15.55;10.55;;;;;;;2.53;96.00;101822.84;4923059;28;20054;-84
2021/01/04 06:46:50;;;;;;;15.48;10.50;;;;;;;2.53;95.48;101822.84;4969517;28;20035;-83
2021/01/04 06:49:18;;;;;;;17.05;11.07;;;;;;;2.52;95.60;101825.53;4945780;29;20046;-83
2021/01/04 06:52:18;;;;;;;18.17;10.55;;;;;;;2.44;95.26;101800.44;4955613;28;20019;-83
2021/01/04 06:55:11;;;;;;;14.95;10.25;;;;;;;2.61;94.92;101830.34;4985788;28;20041;-84
2021/01/04 06:58:00;;;;;;;14.38;10.05;;;;;;;2.58;95.09;101833.97;4965072;28;20032;-85
2021/01/04 07:00:34;;;;;;;13.70;9.52;;;;;;;2.59;95.51;101834.84;4950919;28;20050;-79
2021/01/04 07:03:36;;;;;;;18.02;10.95;;;;;;;2.52;95.58;101831.66;4957324;28;20407;-84
2021/01/04 07:06:11;;;;;;;15.15;10.48;;;;;;;2.55;95.72;101830.66;4954182;28;20057;-86
2021/01/04 07:09:08;;;;;;;14.90;10.07;;;;;;;2.51;95.48;101837.03;4995287;28;20061;-87
2021/01/04 07:11:54;;;;;;;15.70;9.80;;;;;;;2.57;95.67;101847.25;4938585;28;20038;-85
2021/01/04 07:14:53;;;;;;;15.57;10.57;;;;;;;2.51;96.01;101840.50;4972935;28;20015;-85
2021/01/04 07:17:40;;;;;;;15.05;10.18;;;;;;;2.52;95.98;101852.75;4966027;28;20490;-83
2021/01/04 07:20:23;;;;;;;13.43;9.32;;;;;;;2.55;95.38;101860.50;4968371;28;20563;-82
2021/01/04 07:23:00;;;;;;;14.20;10.05;;;;;;;2.52;95.69;101855.38;4966156;28;20046;-85
2021/01/04 07:25:34;;;;;;;14.23;9.47;;;;;;;2.51;95.67;101861.56;4972462;28;20035;-85
2021/01/04 07:28:18;;;;;;;13.60;9.43;;;;;;;2.53;95.39;101857.09;4953437;28;20470;-84
2021/01/04 07:30:57;;;;;;;14.50;10.55;;;;;;;2.51;95.43;101853.66;4914316;28;20118;-85
2021/01/04 07:33:54;;;;;;;13.60;9.55;;;;;;;2.33;95.90;101812.41;4941076;29;20016;-83
2021/01/04 07:36:39;;;;;;;14.48;9.93;;;;;;;2.54;95.38;101853.53;4914194;29;20152;-85
2021/01/04 07:39:33;;;;;;;13.43;9.52;;;;;;;2.51;95.42;101858.09;4946997;29;20028;-85
2021/01/04 07:42:08;;;;;;;13.77;9.73;;;;;;;2.36;95.55;101833.34;4950877;29;20035;-84
2021/01/04 07:44:58;;;;;;;16.10;10.20;;;;;;;2.58;95.44;101862.13;4952578;28;20041;-84
2021/01/04 07:47:30;;;;;;;15.13;10.15;;;;;;;2.56;95.34;101872.75;4943633;29;20035;-84
2021/01/04 07:50:16;;;;;;;14.45;10.02;;;;;;;2.58;95.39;101872.66;4954024;28;20594;-83
2021/01/04 07:53:10;;;;;;;13.02;9.70;;;;;;;2.59;95.38;101869.09;4954376;28;20401;-84
2021/01/04 07:55:53;;;;;;;18.52;11.55;;;;;;;2.28;95.48;101823.19;4941516;28;20445;-84
2021/01/04 07:58:35;;;;;;;16.30;11.23;;;;;;;2.46;95.73;101850.41;4932294;29;20534;-83
2021/01/04 08:01:25;;;;;;;18.02;11.40;;;;;;;2.61;96.02;101877.78;4944583;29;20061;-83
2021/01/04 08:04:06;;;;;;;18.25;10.57;;;;;;;2.62;95.25;101876.00;4951474;28;20035;-83
2021/01/04 08:06:52;;;;;;;18.13;10.60;;;;;;;2.63;95.39;101875.06;4940456;29;20030;-82
2021/01/04 08:09:43;;;;;;;16.42;10.52;;;;;;;2.65;95.33;101883.75;4949029;28;20038;-82
2021/01/04 08:12:33;;;;;;;17.63;11.07;;;;;;;2.66;95.18;101885.47;4950795;28;20481;-83
2021/01/04 08:15:26;;;;;;;20.27;11.15;;;;;;;2.66;95.37;101881.03;4950196;28;20031;-83
2021/01/04 08:17:57;;;;;;;16.35;11.52;;;;;;;2.41;95.25;101845.34;4945744;28;20023;-83
2021/01/04 08:20:22;;;;;;;18.27;11.02;;;;;;;2.56;95.04;101863.97;4949216;28;20042;-85
2021/01/04 08:22:47;;;;;;;18.13;11.88;;;;;;;2.71;95.15;101899.28;4950115;29;20550;-86
2021/01/04 08:25:31;;;;;;;19.98;10.98;;;;;;;2.71;94.81;101891.38;4950893;29;20039;-84
2021/01/04 08:28:00;;;;;;;16.77;11.63;;;;;;;2.72;94.68;101900.97;4933731;29;20109;-85
2021/01/04 08:30:33;;;;;;;;;;;;;;;2.74;94.49;101905.25;4933074;29;20048;-84
2021/01/04 08:33:25;;;;;;;19.45;11.27;;;;;;;2.72;94.72;101895.69;4946692;29;19918;-84
2021/01/04 08:35:51;;;;;;;18.77;10.80;;;;;;;2.70;95.12;101902.84;4946317;28;20027;-85
2021/01/04 08:38:25;;;;;;;13.70;10.15;;;;;;;2.73;95.02;101907.94;4916152;29;20037;-83
2021/01/04 08:40:55;;;;;;;15.25;10.13;;;;;;;2.63;95.05;101882.97;4945489;28;20031;-84
2021/01/04 08:43:42;;;;;;;17.30;10.60;;;;;;;2.64;95.12;101887.31;4962684;28;20046;-84
2021/01/04 08:46:22;;;;;;;16.48;10.38;;;;;;;2.72;95.36;101911.50;4949204;28;20092;-84
2021/01/04 08:48:52;;;;;;;18.00;11.93;;;;;;;2.68;95.60;101912.59;4962439;28;20103;-90
2021/01/04 08:51:30;;;;;;;13.25;9.80;;;;;;;2.73;95.56;101921.13;4944943;28;20039;-83
2021/01/04 08:54:03;;;;;;;13.73;10.40;;;;;;;2.65;94.58;101908.31;4947325;28;20037;-84
2021/01/04 08:56:39;;;;;;;16.58;10.40;;;;;;;2.73;95.15;101921.13;4945249;28;20058;-83
2021/01/04 08:59:09;;;;;;;16.02;10.63;;;;;;;2.62;95.25;101899.72;4946634;29;20568;-83
2021/01/04 09:01:35;;;;;;;16.30;10.75;;;;;;;2.63;95.11;101890.88;4933447;29;20047;-83
2021/01/04 09:04:09;;;;;;;15.88;10.52;;;;;;;2.85;94.58;101919.69;4931082;29;20366;-84
2021/01/04 09:06:36;;;;;;;16.65;9.88;;;;;;;2.79;94.33;101923.47;4944012;28;20050;-84
2021/01/04 09:09:14;;;;;;;14.73;11.30;;;;;;;2.81;94.69;101933.94;4927605;29;20031;-83
2021/01/04 09:11:43;;;;;;;15.48;9.68;;;;;;;2.87;94.19;101931.84;4939432;29;20023;-83
2021/01/04 09:14:14;;;;;;;17.13;10.05;;;;;;;2.57;93.58;101868.31;4938348;29;20039;-84
2021/01/04 09:16:39;;;;;;;12.55;9.25;;;;;;;2.30;92.76;101829.22;4904451;29;20070;-83
2021/01/04 09:19:18;;;;;;;24.55;9.85;;;;;;;2.98;93.15;101939.22;4938205;28;20042;-84
2021/01/04 09:21:45;;;;;;;12.38;8.82;;;;;;;2.91;92.18;101925.50;4916862;29;20170;-83
2021/01/04 09:24:22;;;;;;;15.73;9.30;;;;;;;3.04;91.97;101941.56;4917841;29;20114;-84
2021/01/04 09:26:50;;;;;;;11.93;8.48;;;;;;;2.96;92.41;101932.34;4946556;29;20086;-83
2021/01/04 09:29:20;;;;;;;12.07;7.93;;;;;;;3.10;91.37;101939.53;4929868;29;20023;-84
2021/01/04 09:32:05;;;;;;;13.45;8.57;;;;;;;2.89;91.56;101922.06;4944789;28;20030;-83
2021/01/04 09:34:31;;;;;;;13.77;8.55;;;;;;;3.03;91.17;101946.91;4944647;28;20036;-83
2021/01/04 09:37:25;;;;;;;12.00;7.97;;;;;;;3.03;91.51;101939.88;4945298;29;20486;-83
2021/01/04 09:39:59;;;;;;;9.80;7.45;;;;;;;3.04;90.95;101951.25;4966587;28;20106;-84
2021/01/04 09:42:25;;;;;;;13.10;8.15;;;;;;;2.98;91.57;101949.78;4935489;29;20035;-83
2021/01/04 09:44:51;;;;;;;12.73;7.95;;;;;;;2.97;91.55;101949.88;4964613;28;20020;-84
2021/01/04 09:47:23;;;;;;;9.80;7.45;;;;;;;3.06;91.85;101944.13;4946999;29;20039;-84
2021/01/04 09:49:48;;;;;;;11.13;7.70;;;;;;;2.97;91.98;101932.25;4932230;29;20051;-84
2021/01/04 09:52:32;;;;;;;9.45;7.22;;;;;;;3.06;91.21;101946.75;4934026;29;20066;-83
2021/01/04 09:55:00;;;;;;;16.52;7.68;;;;;;;3.06;91.30;101955.50;4962470;28;20031;-84
2021/01/04 09:57:26;;;;;;;10.38;7.45;;;;;;;2.91;91.60;101928.13;4931566;29;20037;-84
2021/01/04 09:59:52;;;;;;;12.07;8.00;;;;;;;3.01;91.32;101956.66;4905316;29;20102;-83
2021/01/04 10:02:25;;;;;;;10.05;7.50;;;;;;;3.03;91.29;101950.41;4949553;29;20035;-84
2021/01/04 10:04:50;;;;;;;11.15;7.70;;;;;;;2.99;91.55;101951.47;4951439;28;20035;-83
2021/01/04 10:07:27;;;;;;;11.98;7.53;;;;;;;2.92;90.52;101936.88;4940809;29;20027;-82
2021/01/04 10:09:52;;;;;;;8.85;6.20;;;;;;;2.90;90.78;101936.13;4933777;28;20023;-83
2021/01/04 10:12:20;;;;;;;9.27;7.10;;;;;;;2.65;90.67;101897.78;4986753;28;20027;-82
2021/01/04 10:14:46;;;;;;;9.63;8.05;;;;;;;3.03;91.17;101957.44;4973606;28;20030;-83
2021/01/04 10:17:11;;;;;;;9.13;6.93;;;;;;;2.87;90.78;101931.00;4989167;28;20704;-83
2021/01/04 10:19:59;;;;;;;9.57;7.25;;;;;;;3.01;91.27;101962.81;4988232;28;20528;-82
2021/01/04 10:22:38;;;;;;;9.68;7.80;;;;;;;2.71;91.10;101917.75;4987124;28;20030;-82
2021/01/04 10:25:26;;;;;;;9.73;6.80;;;;;;;2.95;91.26;101968.38;4982397;28;20042;-82
2021/01/04 10:27:52;;;;;;;8.75;6.82;;;;;;;3.01;90.40;101962.81;4968920;28;20044;-79
2021/01/04 10:30:21;;;;;;;8.05;6.68;;;;;;;3.04;90.76;101967.06;4965018;28;20045;-79
2021/01/04 10:32:46;;;;;;;9.20;6.60;;;;;;;3.01;90.56;101957.53;4983579;28;20120;-78
2021/01/04 10:35:22;;;;;;;8.50;6.22;;;;;;;2.95;90.44;101957.84;5004273;28;20101;-82
2021/01/04 10:37:52;;;;;;;10.07;6.55;;;;;;;2.77;90.13;101925.31;4983647;28;20342;-84
2021/01/04 10:40:20;;;;;;;11.15;6.68;;;;;;;2.85;90.03;101938.13;4948639;28;20030;-79
2021/01/04 10:42:47;;;;;;;10.95;6.68;;;;;;;2.97;90.44;101958.63;4977845;28;20374;-79
2021/01/04 10:45:18;;;;;;;8.70;6.40;;;;;;;2.40;90.64;101867.38;4957797;28;20138;-78
2021/01/04 10:48:13;;;;;;;12.35;6.25;;;;;;;2.95;91.27;101952.56;4990313;28;20160;-81
2021/01/04 10:50:39;;;;;;;11.13;6.43;;;;;;;2.91;91.56;101954.50;4989075;28;20616;-81
2021/01/04 10:53:11;;;;;;;9.60;6.47;;;;;;;2.88;91.42;101957.28;4961803;28;20035;-82
2021/01/04 10:55:50;;;;;;;9.65;6.45;;;;;;;2.78;92.41;101936.75;4964770;28;20030;-82
2021/01/04 10:58:20;;;;;;;;;;;;;;;2.81;91.82;101953.25;4981865;28;20157;-82
2021/01/04 11:00:56;;;;;;;8.77;6.35;;;;;;;2.85;91.30;101949.53;4979131;28;19964;-81
2021/01/04 11:03:22;;;;;;;11.88;6.82;;;;;;;2.81;91.56;101939.19;4982787;28;20486;-82
2021/01/04 11:05:49;;;;;;;8.88;6.70;;;;;;;2.84;91.33;101941.69;4957067;28;20109;-82
2021/01/04 11:08:23;;;;;;;7.40;6.00;;;;;;;2.89;91.19;101939.69;4986621;28;20030;-82
2021/01/04 11:11:00;;;;;;;10.90;7.10;;;;;;;2.89;90.92;101932.63;4979008;28;20041;-79
2021/01/04 11:13:31;;;;;;;11.00;6.97;;;;;;;2.87;90.79;101928.38;4987644;28;20084;-82
2021/01/04 11:16:14;;;;;;;7.22;6.18;;;;;;;2.73;90.07;101903.53;4980563;28;20103;-80
2021/01/04 11:18:53;;;;;;;7.40;6.47;;;;;;;2.58;90.00;101873.50;4969344;28;20038;-79
2021/01/04 11:21:20;;;;;;;7.90;6.22;;;;;;;2.88;89.57;101927.44;4979059;28;20031;-80
2021/01/04 11:23:46;;;;;;;7.68;5.70;;;;;;;2.89;89.92;101926.50;4953137;28;20122;-79
2021/01/04 11:26:11;;;;;;;6.85;5.50;;;;;;;2.65;89.37;101884.59;4983192;28;20042;-79
2021/01/04 11:28:37;;;;;;;9.00;5.90;;;;;;;2.90;89.15;101922.94;4985989;28;20038;-80
2021/01/04 11:31:03;;;;;;;8.15;5.45;;;;;;;2.86;89.03;101924.88;4940283;28;20026;-78
2021/01/04 11:33:28;;;;;;;6.50;5.65;;;;;;;2.90;89.07;101928.22;4971997;28;20062;-78
2021/01/04 11:35:54;;;;;;;7.28;5.68;;;;;;;2.80;88.57;101906.72;4988439;28;20042;-78
2021/01/04 11:38:20;;;;;;;8.68;5.38;;;;;;;2.84;88.59;101918.84;4983721;28;20089;-77
2021/01/04 11:40:46;;;;;;;12.35;5.32;;;;;;;2.82;88.89;101914.56;4948376;28;20076;-77
2021/01/04 11:43:12;;;;;;;7.25;6.32;;;;;;;2.84;88.80;101916.19;4979143;28;20042;-77
2021/01/04 11:45:38;;;;;;;9.65;5.38;;;;;;;2.78;88.72;101913.84;4975166;28;20046;-79
2021/01/04 11:48:04;;;;;;;6.65;5.00;;;;;;;2.85;88.24;101919.69;4942456;28;20471;-77
2021/01/04 11:50:29;;;;;;;8.10;5.20;;;;;;;2.63;88.22;101898.78;4977550;28;20049;-76
2021/01/04 11:52:56;;;;;;;5.80;5.20;;;;;;;2.74;88.32;101915.78;4966708;28;20110;-75
2021/01/04 11:55:22;;;;;;;7.30;5.35;;;;;;;2.77;88.60;101916.56;4983045;28;20037;-79
2021/01/04 11:57:48;;;;;;;8.43;4.68;;;;;;;2.75;88.17;101924.53;4966264;28;20038;-80
2021/01/04 12:00:14;;;;;;;6.05;4.22;;;;;;;2.39;88.17;101864.81;4950363;28;20030;-77